createdAt,value
2022-09-22T04:28:56.831Z,0.01
2022-09-22T04:33:39.688Z,0.02
2022-09-22T04:35:39.660Z,0.03
2022-09-22T04:38:28.698Z,0.05
2022-09-22T04:41:03.408Z,0.09
2022-09-22T04:43:23.845Z,0.14
2022-09-22T04:45:30.265Z,0.21
2022-09-22T04:48:25.402Z,0.36
2022-09-22T04:51:06.258Z,0.55
2022-09-22T04:53:32.877Z,0.86
2022-09-22T04:55:45.376Z,1.27
2022-09-22T04:57:43.518Z,1.71
2022-09-22T05:00:30.519Z,2.4
2022-09-22T05:03:03.481Z,3.29
2022-09-22T05:05:22.054Z,4.45
2022-09-22T05:07:25.980Z,5.52
2022-09-22T05:10:19.205Z,7.42
2022-09-22T05:12:58.192Z,9.76
2022-09-22T05:15:23.592Z,11.51
2022-09-22T05:17:33.699Z,13.91
2022-09-22T05:20:33.190Z,16.95
2022-09-22T05:23:18.430Z,20.25
2022-09-22T05:25:49.344Z,23.04
2022-09-22T05:28:06.212Z,25.28
2022-09-22T05:30:08.868Z,27.59
2022-09-22T05:33:00.406Z,31.05
2022-09-22T05:35:37.708Z,34.46
2022-09-22T05:38:00.838Z,36.75
2022-09-22T05:40:09.660Z,39.5
2022-09-22T05:43:07.497Z,42.64
2022-09-22T05:45:51.016Z,45.24
2022-09-22T05:48:20.204Z,48.34
2022-09-22T05:50:35.227Z,52.88
2022-09-22T05:52:36.174Z,56.8
2022-09-22T05:55:25.881Z,60.4
2022-09-22T05:58:01.300Z,59.94
2022-09-22T06:00:22.277Z,61.16
2022-09-22T06:02:29.368Z,61.52
2022-09-22T06:05:25.236Z,64.32
2022-09-22T06:08:06.999Z,67.22
2022-09-22T06:10:34.383Z,69.7
2022-09-22T06:12:47.558Z,72.64
2022-09-22T06:14:46.601Z,74.86
2022-09-22T06:17:34.335Z,76.78
2022-09-22T06:20:07.857Z,74.44
2022-09-22T06:22:27.192Z,76.34
2022-09-22T06:24:32.652Z,82
2022-09-22T06:27:26.686Z,96.08
2022-09-22T06:30:06.529Z,105.48
2022-09-22T06:32:32.375Z,122.84
2022-09-22T06:34:43.833Z,139.8
2022-09-22T06:37:44.135Z,146.36
2022-09-22T06:40:30.309Z,146.8
2022-09-22T06:43:02.179Z,157.44
2022-09-22T06:45:19.785Z,155.4
2022-09-22T06:47:23.427Z,150.44
2022-09-22T06:50:15.813Z,148.88
2022-09-22T06:52:53.485Z,150.2
2022-09-22T06:55:17.288Z,154.6
2022-09-22T06:57:26.956Z,163.44
2022-09-22T07:00:25.471Z,173.8
2022-09-22T07:03:09.747Z,183.2
2022-09-22T07:05:39.996Z,197.7
2022-09-22T07:07:55.967Z,212.5
2022-09-22T07:09:57.574Z,221.1
2022-09-22T07:12:48.202Z,233.9
2022-09-22T07:15:24.492Z,238.6
2022-09-22T07:17:46.516Z,240.8
2022-09-22T07:19:54.546Z,244.1
2022-09-22T07:22:51.288Z,247.6
2022-09-22T07:25:33.725Z,251.6
2022-09-22T07:28:01.878Z,255.9
2022-09-22T07:30:15.954Z,256
2022-09-22T07:32:15.768Z,262.5
2022-09-22T07:35:04.313Z,267.3
2022-09-22T07:37:38.895Z,271.1
2022-09-22T07:39:59.075Z,275.2
2022-09-22T07:42:05.093Z,278.1
2022-09-22T07:44:59.509Z,283.6
2022-09-22T07:47:40.115Z,289.5
2022-09-22T07:50:06.610Z,293
2022-09-22T07:52:18.980Z,296.4
2022-09-22T07:54:17.010Z,300.5
2022-09-22T07:57:03.665Z,304.7
2022-09-22T07:59:36.136Z,309.9
2022-09-22T08:01:54.618Z,314.8
2022-09-22T08:03:58.803Z,319.3
2022-09-22T08:06:51.625Z,326.1
2022-09-22T08:09:30.444Z,331.5
2022-09-22T08:11:54.987Z,337.6
2022-09-22T08:14:05.205Z,340
2022-09-22T08:17:04.350Z,346.8
2022-09-22T08:19:49.223Z,351.6
2022-09-22T08:22:19.933Z,358.2
2022-09-22T08:24:36.372Z,363.6
2022-09-22T08:26:38.743Z,368
2022-09-22T08:29:29.764Z,373.9
2022-09-22T08:32:06.644Z,377.6
2022-09-22T08:34:29.436Z,383.5
2022-09-22T08:36:37.520Z,387.8
2022-09-22T08:39:34.745Z,395.8
2022-09-22T08:42:17.867Z,404.9
2022-09-22T08:44:46.862Z,413.4
2022-09-22T08:47:01.620Z,420.8
2022-09-22T08:49:02.208Z,427.3
2022-09-22T08:51:51.609Z,439.5
2022-09-22T08:54:26.647Z,451
2022-09-22T08:56:47.430Z,462.5
2022-09-22T08:58:54.260Z,465.9
2022-09-22T09:01:49.700Z,474.8
2022-09-22T09:04:30.902Z,481.7
2022-09-22T09:06:58.037Z,492.8
2022-09-22T09:09:10.919Z,494.2
2022-09-22T09:11:09.633Z,501.6
2022-09-22T09:13:57.140Z,519.6
2022-09-22T09:16:31.870Z,532.9
2022-09-22T09:18:49.427Z,552.8
2022-09-22T09:20:54.434Z,567.3
2022-09-22T09:26:27.495Z,591
2022-09-22T09:28:52.185Z,601.2
2022-09-22T09:31:03.238Z,613.4
2022-09-22T09:34:02.912Z,622.8
2022-09-22T09:36:48.377Z,625.9
2022-09-22T09:39:19.897Z,634.5
2022-09-22T09:41:37.169Z,644.3
2022-09-22T09:43:40.196Z,653.6
2022-09-22T09:46:32.110Z,659.8
2022-09-22T09:49:09.684Z,683.8
2022-09-22T09:51:33.037Z,680
2022-09-22T09:53:42.628Z,682.2
2022-09-22T09:56:40.326Z,697.6
2022-09-22T09:59:24.039Z,715.8
2022-09-22T10:01:53.561Z,722.2
2022-09-22T10:04:08.995Z,723.2
2022-09-22T10:06:10.332Z,729.2
2022-09-22T10:09:00.394Z,735
2022-09-22T10:11:36.463Z,737.6
2022-09-22T10:13:58.261Z,734
2022-09-22T10:16:05.812Z,741.1
2022-09-22T10:19:02.368Z,745.6
2022-09-22T10:21:44.325Z,759.6
2022-09-22T10:24:12.650Z,760.9
2022-09-22T10:26:26.217Z,764.1
2022-09-22T10:28:26.007Z,768
2022-09-22T10:31:14.511Z,765.7
2022-09-22T10:33:48.570Z,781.4
2022-09-22T10:36:10.950Z,780.8
2022-09-22T10:38:14.655Z,780.4
2022-09-22T10:41:09.152Z,783.3
2022-09-22T10:43:49.763Z,786.2
2022-09-22T10:46:16.052Z,792.9
2022-09-22T10:48:28.085Z,780.4
2022-09-22T10:50:26.175Z,797.1
2022-09-22T10:53:12.881Z,800
2022-09-22T10:55:45.362Z,804.1
2022-09-22T10:58:03.600Z,793.2
2022-09-22T11:00:07.774Z,794.8
2022-09-22T11:03:00.655Z,791
2022-09-22T11:05:39.286Z,794.2
2022-09-22T11:08:03.796Z,796.1
2022-09-22T11:10:14.091Z,794.8
2022-09-22T11:13:12.791Z,804.4
2022-09-22T11:15:57.907Z,796.8
2022-09-22T11:18:28.728Z,796.1
2022-09-22T11:20:45.349Z,795.2
2022-09-22T11:22:47.989Z,792.9
2022-09-22T11:25:39.229Z,794.5
2022-09-22T11:28:16.044Z,777.9
2022-09-22T11:30:38.781Z,784.9
2022-09-22T11:32:47.347Z,791.3
2022-09-22T11:35:44.658Z,795.5
2022-09-22T11:38:27.760Z,802.5
2022-09-22T11:43:11.704Z,801.9
2022-09-22T11:45:12.277Z,811.8
2022-09-22T11:48:01.737Z,792.3
2022-09-22T11:50:36.895Z,788.8
2022-09-22T11:52:58.751Z,792.6
2022-09-22T11:55:04.638Z,784.9
2022-09-22T11:58:00.312Z,796.4
2022-09-22T12:00:41.657Z,801.2
2022-09-22T12:03:08.818Z,800.9
2022-09-22T12:05:21.446Z,796.8
2022-09-22T12:07:20.319Z,799.6
2022-09-22T12:10:07.933Z,798.7
2022-09-22T12:12:41.366Z,794.5
2022-09-22T12:15:00.541Z,782
2022-09-22T12:17:05.482Z,776.6
2022-09-22T12:19:59.320Z,768.9
2022-09-22T12:22:38.901Z,758.4
2022-09-22T12:25:04.233Z,772.8
2022-09-22T12:27:15.507Z,768.6
2022-09-22T12:30:15.399Z,788.1
2022-09-22T12:33:01.069Z,776.9
2022-09-22T12:35:32.562Z,765.4
2022-09-22T12:37:50.046Z,757.7
2022-09-22T12:39:53.304Z,743
2022-09-22T12:42:45.259Z,719.3
2022-09-22T12:45:23.227Z,706.5
2022-09-22T12:47:46.942Z,709.7
2022-09-22T12:49:56.284Z,719.3
2022-09-22T12:52:54.574Z,726.4
2022-09-22T12:55:38.633Z,715.8
2022-09-22T12:58:07.995Z,702.4
2022-09-22T13:00:23.450Z,345.6
2022-09-22T13:02:24.948Z,731.2
2022-09-22T13:05:15.179Z,744.9
2022-09-22T13:07:51.127Z,770.8
2022-09-22T13:10:12.944Z,677.7
2022-09-22T13:12:20.687Z,822
2022-09-22T13:15:16.979Z,839.3
2022-09-22T13:17:59.398Z,854
2022-09-22T13:20:27.448Z,837.4
2022-09-22T13:22:41.266Z,859.2
2022-09-22T13:24:40.982Z,873.6
2022-09-22T13:27:29.358Z,866.2
2022-09-22T13:29:44.312Z,848.9
2022-09-22T13:31:45.060Z,871.6
2022-09-22T13:34:34.497Z,868.8
2022-09-22T13:37:09.961Z,861.4
2022-09-22T13:39:31.038Z,850.5
2022-09-22T13:41:37.930Z,843.8
2022-09-22T13:44:33.666Z,837.7
2022-09-22T13:47:15.203Z,807.6
2022-09-22T13:49:42.082Z,801.2
2022-09-22T13:51:55.253Z,776.6
2022-09-22T13:53:54.217Z,761.2
2022-09-22T13:56:41.763Z,739.2
2022-09-22T13:59:15.022Z,706.2
2022-09-22T14:01:34.372Z,691.8
2022-09-22T14:03:39.351Z,652.1
2022-09-22T14:06:33.116Z,642.5
2022-09-22T14:09:12.815Z,592.9
2022-09-22T14:11:38.336Z,668.1
2022-09-22T14:13:49.572Z,776
2022-09-22T14:16:49.804Z,827.5
2022-09-22T14:19:35.708Z,550.2
2022-09-22T14:22:07.429Z,554.5
2022-09-22T14:24:24.810Z,604
2022-09-22T14:26:28.214Z,633.2
2022-09-22T14:29:20.330Z,559.2
2022-09-22T14:31:58.238Z,687
2022-09-22T14:34:22.112Z,933.1
2022-09-22T14:36:31.660Z,534
2022-09-22T14:39:31.605Z,563.6
2022-09-22T14:42:13.761Z,836.8
2022-09-22T14:44:43.793Z,952.6
2022-09-22T14:46:59.533Z,771.2
2022-09-22T14:49:01.249Z,859.5
2022-09-22T14:51:51.705Z,554.8
2022-09-22T14:54:27.876Z,428.1
2022-09-22T14:56:49.718Z,517.1
2022-09-22T14:58:57.642Z,393.4
2022-09-22T15:01:54.329Z,422.2
2022-09-22T15:04:36.620Z,876.8
2022-09-22T15:07:04.779Z,951
2022-09-22T15:09:18.798Z,147.04
2022-09-22T15:11:18.522Z,141.24
2022-09-22T15:14:07.198Z,680
2022-09-22T15:16:41.636Z,313.1
2022-09-22T15:19:01.719Z,279.1
2022-09-22T15:21:07.877Z,248.8
2022-09-22T15:24:02.643Z,246.6
2022-09-22T15:26:43.252Z,237.2
2022-09-22T15:29:09.559Z,232.4
2022-09-22T15:31:21.897Z,221
2022-09-22T15:33:19.520Z,210.4
2022-09-22T15:36:06.298Z,196
2022-09-22T15:38:39.092Z,204.3
2022-09-22T15:40:57.564Z,194.5
2022-09-22T15:43:12.487Z,193.6
2022-09-22T15:45:55.096Z,188.2
2022-09-22T15:48:33.859Z,183.6
2022-09-22T15:50:58.458Z,176.4
2022-09-22T15:53:08.986Z,172
2022-09-22T15:56:08.244Z,164
2022-09-22T15:58:53.281Z,152.92
2022-09-22T16:01:24.062Z,148.96
2022-09-22T16:03:41.380Z,143.08
2022-09-22T16:05:43.401Z,140.48
2022-09-22T16:08:34.446Z,135.56
2022-09-22T16:11:11.587Z,131.04
2022-09-22T16:13:34.444Z,125.4
2022-09-22T16:15:43.103Z,120.04
2022-09-22T16:18:40.639Z,108.08
2022-09-22T16:21:24.154Z,109.08
2022-09-22T16:23:52.922Z,106.76
2022-09-22T16:26:07.356Z,101.84
2022-09-22T16:28:08.101Z,98.28
2022-09-22T16:30:57.457Z,91.88
2022-09-22T16:33:32.617Z,87.16
2022-09-22T16:35:53.722Z,80.78
2022-09-22T16:38:00.557Z,71.72
2022-09-22T16:40:55.958Z,71.46
2022-09-22T16:43:37.398Z,68.68
2022-09-22T16:46:04.620Z,61.6
2022-09-22T16:48:17.626Z,59.92
2022-09-22T16:50:16.622Z,56.46
2022-09-22T16:53:04.239Z,51.32
2022-09-22T16:55:37.767Z,46.96
2022-09-22T16:57:56.718Z,42.94
2022-09-22T17:00:01.846Z,39.01
2022-09-22T17:02:55.578Z,31.92
2022-09-22T17:05:35.130Z,26.57
2022-09-22T17:08:03.603Z,23.14
2022-09-22T17:10:11.993Z,20.49
2022-09-22T17:13:11.989Z,16.51
2022-09-22T17:15:57.956Z,13.25
2022-09-22T17:18:29.219Z,10.66
2022-09-22T17:20:46.658Z,8.38
2022-09-22T17:22:50.042Z,6.79
2022-09-22T17:25:42.116Z,4.9
2022-09-22T17:28:19.942Z,3.8
2022-09-22T17:30:43.633Z,2.87
2022-09-22T17:32:53.340Z,2.12
2022-09-22T17:35:51.473Z,1.42
2022-09-22T17:38:35.500Z,0.99
2022-09-22T17:41:05.455Z,0.65
2022-09-22T17:43:21.175Z,0.42
2022-09-22T17:45:22.606Z,0.31
2022-09-22T17:48:13.051Z,0.18
2022-09-22T17:50:49.139Z,0.12
2022-09-22T17:53:10.997Z,0.07
2022-09-22T17:55:18.784Z,0.05
2022-09-22T17:58:15.337Z,0.03
2022-09-22T18:00:57.499Z,0.02
2022-09-22T18:03:25.462Z,0.01
2022-09-22T18:17:27.556Z,0
2022-09-22T18:20:22.398Z,0.01
2022-09-22T18:23:03.023Z,0
2022-09-22T18:32:26.783Z,0.01
2022-09-22T18:34:59.395Z,0
2022-09-22T18:52:28.775Z,0.01
2022-09-22T19:04:54.453Z,0
2022-09-22T19:07:31.331Z,0.01
2022-09-22T19:12:02.652Z,0
2022-09-22T19:14:59.935Z,0.01
2022-09-22T19:32:13.465Z,0
2022-09-22T19:34:20.444Z,0.01
2022-09-22T19:39:57.424Z,0
2022-09-22T19:49:24.400Z,0.01
2022-09-22T19:54:16.680Z,0
2022-09-22T19:59:15.814Z,0.01
2022-09-22T20:01:55.308Z,0
2022-09-22T20:06:31.927Z,0.01
2022-09-22T20:09:31.907Z,0
2022-09-22T20:37:25.246Z,0.01
2022-09-22T20:39:40.993Z,0
